createdAt,value
2023-11-07T00:01:09.218Z,9.83
2023-11-07T00:04:03.722Z,9.84
2023-11-07T00:06:35.246Z,9.74
2023-11-07T00:09:08.672Z,9.79
2023-11-07T00:11:41.937Z,9.83
2023-11-07T00:14:13.770Z,9.77
2023-11-07T00:16:45.354Z,9.67
2023-11-07T00:19:17.210Z,9.75
2023-11-07T00:21:49.570Z,9.85
2023-11-07T00:24:21.277Z,9.98
2023-11-07T00:26:53.364Z,9.97
2023-11-07T00:29:26.488Z,9.90
2023-11-07T00:31:58.670Z,9.92
2023-11-07T00:34:30.505Z,9.92
2023-11-07T00:37:02.256Z,9.83
2023-11-07T00:39:34.104Z,9.88
2023-11-07T00:42:06.934Z,9.81
2023-11-07T00:44:38.596Z,9.76
2023-11-07T00:47:10.798Z,9.91
2023-11-07T00:49:42.609Z,9.97
2023-11-07T00:52:14.676Z,9.85
2023-11-07T00:54:46.365Z,9.84
2023-11-07T00:57:18.033Z,9.87
2023-11-07T00:59:49.877Z,9.82
2023-11-07T01:02:21.630Z,9.88
2023-11-07T01:04:53.476Z,9.89
2023-11-07T01:07:25.148Z,9.84
2023-11-07T01:09:57.113Z,9.81
2023-11-07T01:12:29.223Z,9.84
2023-11-07T01:15:01.270Z,9.80
2023-11-07T01:17:33.383Z,9.85
2023-11-07T01:20:07.672Z,9.88
2023-11-07T01:22:39.941Z,9.79
2023-11-07T01:25:12.422Z,9.70
2023-11-07T01:27:44.049Z,9.73
2023-11-07T01:30:17.548Z,9.80
2023-11-07T01:32:51.246Z,9.75
2023-11-07T01:35:23.232Z,9.81
2023-11-07T01:37:54.962Z,9.76
2023-11-07T01:40:27.204Z,9.76
2023-11-07T01:42:59.216Z,9.79
2023-11-07T01:45:30.932Z,9.89
2023-11-07T01:48:02.727Z,9.87
2023-11-07T01:50:35.184Z,9.81
2023-11-07T01:53:08.573Z,9.84
2023-11-07T01:55:43.058Z,9.86
2023-11-07T01:58:16.712Z,9.83
2023-11-07T02:00:49.854Z,9.85
2023-11-07T02:03:22.097Z,9.83
2023-11-07T02:05:54.135Z,9.79
2023-11-07T02:08:27.257Z,9.92
2023-11-07T02:10:59.818Z,9.93
2023-11-07T02:13:31.584Z,9.88
2023-11-07T02:16:03.470Z,9.96
2023-11-07T02:18:35.347Z,9.99
2023-11-07T02:21:08.057Z,9.88
2023-11-07T02:23:40.384Z,9.90
2023-11-07T02:26:12.372Z,9.93
2023-11-07T02:28:46.151Z,9.88
2023-11-07T02:31:18.097Z,9.84
2023-11-07T02:33:50.012Z,9.92
2023-11-07T02:36:21.878Z,9.88
2023-11-07T02:38:54.225Z,9.78
2023-11-07T02:41:27.493Z,9.84
2023-11-07T02:43:59.251Z,9.75
2023-11-07T02:46:31.482Z,9.80
2023-11-07T02:49:05.002Z,9.80
2023-11-07T02:51:37.091Z,9.80
2023-11-07T02:54:10.053Z,9.75
2023-11-07T02:56:43.711Z,9.62
2023-11-07T02:59:15.526Z,9.74
2023-11-07T03:01:47.675Z,9.76
2023-11-07T03:04:19.652Z,9.75
2023-11-07T03:06:51.379Z,9.81
2023-11-07T03:09:23.106Z,9.61
2023-11-07T03:11:54.965Z,9.55
2023-11-07T03:14:26.815Z,9.65
2023-11-07T03:16:58.976Z,9.64
2023-11-07T03:19:30.735Z,9.54
2023-11-07T03:22:02.561Z,9.55
2023-11-07T03:24:34.480Z,9.53
2023-11-07T03:27:06.841Z,9.43
2023-11-07T03:29:39.109Z,9.48
2023-11-07T03:32:12.802Z,9.44
2023-11-07T03:34:44.630Z,9.46
2023-11-07T03:37:16.493Z,9.55
2023-11-07T03:39:48.239Z,9.59
2023-11-07T03:42:19.945Z,9.49
2023-11-07T03:44:51.627Z,9.48
2023-11-07T03:47:23.398Z,9.53
2023-11-07T03:49:55.851Z,9.40
2023-11-07T03:52:27.742Z,9.43
2023-11-07T03:54:59.638Z,9.54
2023-11-07T03:57:31.263Z,9.47
2023-11-07T04:00:04.726Z,9.32
2023-11-07T04:02:36.675Z,9.31
2023-11-07T04:05:11.854Z,9.20
2023-11-07T04:07:42.379Z,9.19
2023-11-07T04:10:14.488Z,9.25
2023-11-07T04:12:46.613Z,9.14
2023-11-07T04:15:18.720Z,9.16
2023-11-07T04:17:50.756Z,9.26
2023-11-07T04:20:24.221Z,9.25
2023-11-07T04:22:56.189Z,9.16
2023-11-07T04:25:27.926Z,9.25
2023-11-07T04:27:59.888Z,9.28
2023-11-07T04:30:31.707Z,9.20
2023-11-07T04:33:04.422Z,9.27
2023-11-07T04:35:36.301Z,9.25
2023-11-07T04:38:08.354Z,9.17
2023-11-07T04:40:41.852Z,9.27
2023-11-07T04:43:14.044Z,9.31
2023-11-07T04:45:45.815Z,9.17
2023-11-07T04:48:18.553Z,9.25
2023-11-07T04:50:50.663Z,9.40
2023-11-07T04:53:22.612Z,9.34
2023-11-07T04:55:54.421Z,9.31
2023-11-07T04:58:26.886Z,9.29
2023-11-07T05:00:58.603Z,9.22
2023-11-07T05:03:38.775Z,9.26
2023-11-07T05:06:13.329Z,9.43
2023-11-07T05:08:45.116Z,9.33
2023-11-07T05:11:18.678Z,9.24
2023-11-07T05:13:50.627Z,9.32
2023-11-07T05:16:22.335Z,9.38
2023-11-07T05:18:54.872Z,9.25
2023-11-07T05:21:26.770Z,9.25
2023-11-07T05:23:58.608Z,9.30
2023-11-07T05:26:30.439Z,9.21
2023-11-07T05:29:02.553Z,9.38
2023-11-07T05:31:34.288Z,9.43
2023-11-07T05:34:07.532Z,9.29
2023-11-07T05:36:39.237Z,9.33
2023-11-07T05:39:10.969Z,9.43
2023-11-07T05:41:42.941Z,9.42
2023-11-07T05:44:15.055Z,9.38
2023-11-07T05:46:46.920Z,9.38
2023-11-07T05:49:18.678Z,9.33
2023-11-07T05:51:50.477Z,9.27
2023-11-07T05:54:22.633Z,9.34
2023-11-07T05:56:54.267Z,9.29
2023-11-07T05:59:27.719Z,9.16
2023-11-07T06:01:59.301Z,9.20
2023-11-07T06:04:37.657Z,9.27
2023-11-07T06:07:11.212Z,9.16
2023-11-07T06:09:42.671Z,9.26
2023-11-07T06:12:14.565Z,9.35
2023-11-07T06:14:46.614Z,9.23
2023-11-07T06:17:18.808Z,9.19
2023-11-07T06:19:50.953Z,9.29
2023-11-07T06:22:22.764Z,9.25
2023-11-07T06:24:54.799Z,9.23
2023-11-07T06:27:26.558Z,9.25
2023-11-07T06:29:59.749Z,9.23
2023-11-07T06:32:32.002Z,9.21
2023-11-07T06:35:06.678Z,9.35
2023-11-07T06:37:38.525Z,9.26
2023-11-07T06:40:17.306Z,9.20
2023-11-07T06:42:52.894Z,9.25
2023-11-07T06:45:25.357Z,9.34
2023-11-07T06:47:57.005Z,9.40
2023-11-07T06:50:29.061Z,9.26
2023-11-07T06:53:00.761Z,9.32
2023-11-07T06:55:33.970Z,9.24
2023-11-07T06:58:05.675Z,9.22
2023-11-07T07:00:40.128Z,9.27
2023-11-07T07:03:12.671Z,9.23
2023-11-07T07:05:44.638Z,9.19
2023-11-07T07:08:16.364Z,9.25
2023-11-07T07:10:48.214Z,9.24
2023-11-07T07:13:21.277Z,9.35
2023-11-07T07:15:53.100Z,9.45
2023-11-07T07:18:26.302Z,9.51
2023-11-07T07:20:59.317Z,9.47
2023-11-07T07:23:34.124Z,9.45
2023-11-07T07:26:09.714Z,9.57
2023-11-07T07:28:41.324Z,9.42
2023-11-07T07:31:18.257Z,9.50
2023-11-07T07:33:50.379Z,9.54
2023-11-07T07:36:23.885Z,9.49
2023-11-07T07:38:55.445Z,9.69
2023-11-07T07:41:27.011Z,9.68
2023-11-07T07:43:58.819Z,9.85
2023-11-07T07:46:33.108Z,9.93
2023-11-07T07:49:12.197Z,9.96
2023-11-07T07:51:46.639Z,9.89
2023-11-07T07:54:36.325Z,9.85
2023-11-07T07:57:19.232Z,9.79
2023-11-07T07:59:50.991Z,9.90
2023-11-07T08:02:22.563Z,9.96
2023-11-07T08:04:54.287Z,9.86
2023-11-07T08:07:26.163Z,9.95
2023-11-07T08:09:57.871Z,10.08
2023-11-07T08:12:29.557Z,10.17
2023-11-07T08:15:01.245Z,10.11
2023-11-07T08:17:33.762Z,10.07
2023-11-07T08:20:15.585Z,10.02
2023-11-07T08:22:48.943Z,10.10
2023-11-07T08:25:22.363Z,10.20
2023-11-07T08:27:54.713Z,10.25
2023-11-07T08:30:26.824Z,10.08
2023-11-07T08:33:01.250Z,9.97
2023-11-07T08:35:33.587Z,9.85
2023-11-07T08:38:06.069Z,9.90
2023-11-07T08:40:38.074Z,9.96
2023-11-07T08:43:10.546Z,9.91
2023-11-07T08:45:42.344Z,9.81
2023-11-07T08:48:14.897Z,9.85
2023-11-07T08:50:47.151Z,9.78
2023-11-07T08:53:19.890Z,9.73
2023-11-07T08:55:53.107Z,9.75
2023-11-07T08:58:26.962Z,9.70
2023-11-07T09:00:59.429Z,9.97
2023-11-07T09:03:31.289Z,10.25
2023-11-07T09:06:03.230Z,10.26
2023-11-07T09:08:36.925Z,10.45
2023-11-07T09:11:09.373Z,10.66
2023-11-07T09:13:40.983Z,10.60
2023-11-07T09:16:12.735Z,10.68
2023-11-07T09:18:44.999Z,10.55
2023-11-07T09:21:17.896Z,10.41
2023-11-07T09:23:51.366Z,10.46
2023-11-07T09:26:24.096Z,10.43
2023-11-07T09:28:56.176Z,10.31
2023-11-07T09:31:27.809Z,10.38
2023-11-07T09:34:00.944Z,10.33
2023-11-07T09:36:32.749Z,10.39
2023-11-07T09:39:07.085Z,10.29
2023-11-07T09:41:40.871Z,10.37
2023-11-07T09:44:14.424Z,10.26
2023-11-07T09:46:49.337Z,10.34
2023-11-07T09:49:21.245Z,10.40
2023-11-07T09:51:55.829Z,10.33
2023-11-07T09:54:31.208Z,10.32
2023-11-07T09:57:07.751Z,10.25
2023-11-07T09:59:45.439Z,10.19
2023-11-07T10:02:18.169Z,10.33
2023-11-07T10:04:54.250Z,10.48
2023-11-07T10:07:27.504Z,10.35
2023-11-07T10:10:06.647Z,10.47
2023-11-07T10:12:43.991Z,10.67
2023-11-07T10:15:20.274Z,10.47
2023-11-07T10:18:02.031Z,10.49
2023-11-07T10:20:35.267Z,10.51
2023-11-07T10:23:12.670Z,10.55
2023-11-07T10:25:50.710Z,10.55
2023-11-07T10:28:23.904Z,10.70
2023-11-07T10:30:58.618Z,10.72
2023-11-07T10:33:34.149Z,10.81
2023-11-07T10:36:07.307Z,10.84
2023-11-07T10:38:42.049Z,10.92
2023-11-07T10:41:29.533Z,11.06
2023-11-07T10:44:17.042Z,11.19
2023-11-07T10:46:51.477Z,11.01
2023-11-07T10:49:24.077Z,11.01
2023-11-07T10:51:57.026Z,11.27
2023-11-07T10:54:31.781Z,11.34
2023-11-07T10:57:11.708Z,11.40
2023-11-07T10:59:48.608Z,11.64
2023-11-07T11:02:23.639Z,11.71
2023-11-07T11:04:54.250Z,11.51
2023-11-07T11:07:26.517Z,11.57
2023-11-07T11:09:59.521Z,11.65
2023-11-07T11:12:34.144Z,11.65
2023-11-07T11:15:10.695Z,11.71
2023-11-07T11:17:51.096Z,11.77
2023-11-07T11:20:31.353Z,11.88
2023-11-07T11:23:15.263Z,12.04
2023-11-07T11:26:07.120Z,12.24
2023-11-07T11:28:44.001Z,12.25
2023-11-07T11:31:21.963Z,12.28
2023-11-07T11:34:27.659Z,12.36
2023-11-07T11:37:04.165Z,12.36
2023-11-07T11:39:51.529Z,12.57
2023-11-07T11:42:23.056Z,12.71
2023-11-07T11:48:05.816Z,12.52
2023-11-07T11:50:38.399Z,12.53
2023-11-07T11:53:10.520Z,12.78
2023-11-07T11:56:13.369Z,12.56
2023-11-07T11:59:04.689Z,12.46
2023-11-07T12:01:51.741Z,12.62
2023-11-07T12:04:34.185Z,12.37
2023-11-07T12:07:26.020Z,12.50
2023-11-07T12:09:59.160Z,12.74
2023-11-07T12:12:31.734Z,12.91
2023-11-07T12:15:04.896Z,12.80
2023-11-07T12:17:47.554Z,12.85
2023-11-07T12:20:20.747Z,12.86
2023-11-07T12:22:52.534Z,12.65
2023-11-07T12:25:25.707Z,12.78
2023-11-07T12:28:07.156Z,12.84
2023-11-07T12:30:40.771Z,12.62
2023-11-07T12:33:13.422Z,12.58
2023-11-07T12:35:45.700Z,12.91
2023-11-07T12:38:19.958Z,12.95
2023-11-07T12:40:52.180Z,12.97
2023-11-07T12:43:24.626Z,12.99
2023-11-07T12:45:56.299Z,12.90
2023-11-07T12:48:28.864Z,12.93
2023-11-07T12:51:00.680Z,12.85
2023-11-07T12:53:32.324Z,12.80
2023-11-07T12:56:04.731Z,12.74
2023-11-07T12:58:36.561Z,12.55
2023-11-07T13:01:09.206Z,12.46
2023-11-07T13:03:41.765Z,12.38
2023-11-07T13:06:20.783Z,12.27
2023-11-07T13:08:52.747Z,11.87
2023-11-07T13:11:25.681Z,11.85
2023-11-07T13:13:58.233Z,11.93
2023-11-07T13:16:29.833Z,11.76
2023-11-07T13:19:01.849Z,11.74
2023-11-07T13:21:34.125Z,11.75
2023-11-07T13:24:06.780Z,11.74
2023-11-07T13:26:38.528Z,11.73
2023-11-07T13:29:10.144Z,11.53
2023-11-07T13:31:42.700Z,11.31
2023-11-07T13:34:14.696Z,11.33
2023-11-07T13:36:46.658Z,11.39
2023-11-07T13:39:24.972Z,11.19
2023-11-07T13:41:57.190Z,11.13
2023-11-07T13:44:29.050Z,11.11
2023-11-07T13:47:00.786Z,10.99
2023-11-07T13:49:32.489Z,11.03
2023-11-07T13:52:04.513Z,11.12
2023-11-07T13:54:36.756Z,11.12
2023-11-07T13:57:08.903Z,11.18
2023-11-07T13:59:41.299Z,11.37
2023-11-07T14:02:13.799Z,11.38
2023-11-07T14:04:45.774Z,11.47
2023-11-07T14:07:18.424Z,11.33
2023-11-07T14:09:50.173Z,11.21
2023-11-07T14:12:23.313Z,11.08
2023-11-07T14:14:55.354Z,10.94
2023-11-07T14:17:27.308Z,10.92
2023-11-07T14:20:00.927Z,10.95
2023-11-07T14:22:33.173Z,10.99
2023-11-07T14:25:05.858Z,11.00
2023-11-07T14:27:38.347Z,11.00
2023-11-07T14:30:27.249Z,11.12
2023-11-07T14:33:07.728Z,11.28
2023-11-07T14:35:40.545Z,11.35
2023-11-07T14:38:12.588Z,11.35
2023-11-07T14:40:46.847Z,11.36
2023-11-07T14:43:19.693Z,11.35
2023-11-07T14:45:52.072Z,11.35
2023-11-07T14:48:24.757Z,11.47
2023-11-07T14:50:57.460Z,11.54
2023-11-07T14:53:29.738Z,11.40
2023-11-07T14:56:01.499Z,11.40
2023-11-07T14:58:34.543Z,11.34
2023-11-07T15:01:11.137Z,11.10
2023-11-07T15:03:43.458Z,11.02
2023-11-07T15:06:15.990Z,10.94
2023-11-07T15:08:48.121Z,10.68
2023-11-07T15:11:20.290Z,10.64
2023-11-07T15:13:57.094Z,10.59
2023-11-07T15:16:29.024Z,10.62
2023-11-07T15:19:01.049Z,10.72
2023-11-07T15:21:32.984Z,10.90
2023-11-07T15:24:06.683Z,10.99
2023-11-07T15:26:38.469Z,11.00
2023-11-07T15:29:10.374Z,11.10
2023-11-07T15:31:43.536Z,11.04
2023-11-07T15:34:15.360Z,10.78
2023-11-07T15:36:47.600Z,10.59
2023-11-07T15:39:20.278Z,10.66
2023-11-07T15:41:52.254Z,10.73
2023-11-07T15:44:24.419Z,10.54
2023-11-07T15:46:56.171Z,10.49
2023-11-07T15:49:28.787Z,10.51
2023-11-07T15:52:00.877Z,10.33
2023-11-07T15:54:32.997Z,10.19
2023-11-07T15:57:04.848Z,10.19
2023-11-07T15:59:37.061Z,10.06
2023-11-07T16:02:11.352Z,9.89
2023-11-07T16:04:43.452Z,9.83
2023-11-07T16:07:15.049Z,9.67
2023-11-07T16:09:46.930Z,9.65
2023-11-07T16:12:18.639Z,9.76
2023-11-07T16:14:53.294Z,9.69
2023-11-07T16:17:25.155Z,9.63
2023-11-07T16:19:57.066Z,9.70
2023-11-07T16:22:29.817Z,9.70
2023-11-07T16:25:02.631Z,9.65
2023-11-07T16:27:34.472Z,9.77
2023-11-07T16:30:07.039Z,9.81
2023-11-07T16:32:39.350Z,9.72
2023-11-07T16:35:12.369Z,9.72
2023-11-07T16:37:44.329Z,9.84
2023-11-07T16:40:17.887Z,9.70
2023-11-07T16:42:53.379Z,9.75
2023-11-07T16:45:25.440Z,9.73
2023-11-07T16:47:57.424Z,9.57
2023-11-07T16:50:29.166Z,9.58
2023-11-07T16:53:01.507Z,9.63
2023-11-07T16:55:33.236Z,9.65
2023-11-07T16:58:07.228Z,9.61
2023-11-07T17:00:39.053Z,9.83
2023-11-07T17:03:11.265Z,10.21
2023-11-07T17:05:43.234Z,10.26
2023-11-07T17:08:14.849Z,10.35
2023-11-07T17:10:47.884Z,10.46
2023-11-07T17:13:20.943Z,10.33
2023-11-07T17:15:53.282Z,10.14
2023-11-07T17:18:25.103Z,10.02
2023-11-07T17:20:56.821Z,9.98
2023-11-07T17:23:28.690Z,9.81
2023-11-07T17:26:01.710Z,9.80
2023-11-07T17:28:33.247Z,9.87
2023-11-07T17:31:05.319Z,10.04
2023-11-07T17:33:38.428Z,10.09
2023-11-07T17:36:12.562Z,10.36
2023-11-07T17:38:44.393Z,10.73
2023-11-07T17:41:16.394Z,10.83
2023-11-07T17:43:48.344Z,10.57
2023-11-07T17:46:23.093Z,10.29
2023-11-07T17:48:55.460Z,10.29
2023-11-07T17:51:27.240Z,10.24
2023-11-07T17:53:59.759Z,10.05
2023-11-07T17:56:31.485Z,9.89
2023-11-07T17:59:03.998Z,9.77
2023-11-07T18:01:36.649Z,9.61
2023-11-07T18:04:10.142Z,9.40
2023-11-07T18:06:44.417Z,9.37
2023-11-07T18:09:16.619Z,9.34
2023-11-07T18:11:48.274Z,9.39
2023-11-07T18:14:23.482Z,9.42
2023-11-07T18:16:57.641Z,9.34
2023-11-07T18:19:29.639Z,9.30
2023-11-07T18:22:02.090Z,9.37
2023-11-07T18:24:34.391Z,9.40
2023-11-07T18:27:06.901Z,9.33
2023-11-07T18:29:38.732Z,9.28
2023-11-07T18:32:12.732Z,9.12
2023-11-07T18:34:44.532Z,9.16
2023-11-07T18:37:16.357Z,9.23
2023-11-07T18:39:48.240Z,9.21
2023-11-07T18:42:21.455Z,9.07
2023-11-07T18:44:53.244Z,9.06
2023-11-07T18:47:25.098Z,9.05
2023-11-07T18:50:00.586Z,9.13
2023-11-07T18:52:34.015Z,9.02
2023-11-07T18:55:07.218Z,9.11
2023-11-07T18:57:39.678Z,9.18
2023-11-07T19:00:14.333Z,9.17
2023-11-07T19:02:46.235Z,9.04
2023-11-07T19:05:18.559Z,9.07
2023-11-07T19:07:50.432Z,9.07
2023-11-07T19:10:22.678Z,9.06
2023-11-07T19:12:54.272Z,9.11
2023-11-07T19:15:26.428Z,9.20
2023-11-07T19:17:58.236Z,9.18
2023-11-07T19:20:31.790Z,9.14
2023-11-07T19:23:03.363Z,9.18
2023-11-07T19:25:34.980Z,9.26
2023-11-07T19:28:06.969Z,9.14
2023-11-07T19:30:38.566Z,9.14
2023-11-07T19:33:10.992Z,9.21
2023-11-07T19:35:43.236Z,9.09
2023-11-07T19:38:15.119Z,9.16
2023-11-07T19:40:46.937Z,9.31
2023-11-07T19:43:23.461Z,9.19
2023-11-07T19:45:58.292Z,9.10
2023-11-07T19:48:33.815Z,9.16
2023-11-07T19:51:06.245Z,9.12
2023-11-07T19:53:37.967Z,9.15
2023-11-07T19:56:10.796Z,9.24
2023-11-07T19:58:57.472Z,9.26
2023-11-07T20:01:32.320Z,9.08
2023-11-07T20:04:04.624Z,9.07
2023-11-07T20:06:37.286Z,9.12
2023-11-07T20:09:09.935Z,9.00
2023-11-07T20:11:42.033Z,9.03
2023-11-07T20:14:13.877Z,8.96
2023-11-07T20:16:46.157Z,8.86
2023-11-07T20:19:18.145Z,8.92
2023-11-07T20:21:50.034Z,8.89
2023-11-07T20:24:21.844Z,8.82
2023-11-07T20:26:58.155Z,8.80
2023-11-07T20:29:34.803Z,8.84
2023-11-07T20:32:14.450Z,8.86
2023-11-07T20:34:49.476Z,8.67
2023-11-07T20:37:23.445Z,8.65
2023-11-07T20:39:55.238Z,8.62
2023-11-07T20:42:28.940Z,8.56
2023-11-07T20:45:08.127Z,8.49
2023-11-07T20:47:45.997Z,8.37
2023-11-07T20:50:18.228Z,8.51
2023-11-07T20:52:50.129Z,8.65
2023-11-07T20:55:21.914Z,8.56
2023-11-07T20:57:58.812Z,8.56
2023-11-07T21:00:37.344Z,8.57
2023-11-07T21:03:09.252Z,8.51
2023-11-07T21:05:41.778Z,8.57
2023-11-07T21:08:14.273Z,8.67
2023-11-07T21:10:46.834Z,8.65
2023-11-07T21:13:18.707Z,8.57
2023-11-07T21:15:50.472Z,8.65
2023-11-07T21:18:22.549Z,8.67
2023-11-07T21:20:54.677Z,8.61
2023-11-07T21:23:26.629Z,8.55
2023-11-07T21:25:58.470Z,8.61
2023-11-07T21:28:30.496Z,8.45
2023-11-07T21:31:05.960Z,8.53
2023-11-07T21:33:39.692Z,8.46
2023-11-07T21:36:12.209Z,8.43
2023-11-07T21:38:44.759Z,8.52
2023-11-07T21:41:16.614Z,8.60
2023-11-07T21:43:51.543Z,8.70
2023-11-07T21:46:24.310Z,8.51
2023-11-07T21:48:56.190Z,8.54
2023-11-07T21:51:27.934Z,8.50
2023-11-07T21:54:00.319Z,8.40
2023-11-07T21:56:31.867Z,8.40
2023-11-07T21:59:04.241Z,8.32
2023-11-07T22:01:35.840Z,8.32
2023-11-07T22:04:08.169Z,8.36
2023-11-07T22:06:40.114Z,8.47
2023-11-07T22:09:12.272Z,8.32
2023-11-07T22:11:44.671Z,8.40
2023-11-07T22:14:16.499Z,8.50
2023-11-07T22:16:48.810Z,8.44
2023-11-07T22:19:20.733Z,8.42
2023-11-07T22:21:52.825Z,8.48
2023-11-07T22:24:24.654Z,8.46
2023-11-07T22:26:56.182Z,8.48
2023-11-07T22:29:27.956Z,8.57
2023-11-07T22:31:59.731Z,8.56
2023-11-07T22:34:31.554Z,8.47
2023-11-07T22:37:03.242Z,8.38
2023-11-07T22:39:35.012Z,8.44
2023-11-07T22:42:07.358Z,8.41
2023-11-07T22:44:40.980Z,8.48
2023-11-07T22:47:12.729Z,8.52
2023-11-07T22:49:44.905Z,8.50
2023-11-07T22:52:16.653Z,8.41
2023-11-07T22:54:48.564Z,8.53
2023-11-07T22:57:20.356Z,8.57
2023-11-07T22:59:52.854Z,8.61
2023-11-07T23:02:24.645Z,8.56
2023-11-07T23:04:56.318Z,8.45
2023-11-07T23:07:27.740Z,8.45
2023-11-07T23:09:59.430Z,8.36
2023-11-07T23:12:31.101Z,8.46
2023-11-07T23:15:02.763Z,8.41
2023-11-07T23:17:35.129Z,8.36
2023-11-07T23:20:08.909Z,8.46
2023-11-07T23:22:41.442Z,8.38
2023-11-07T23:25:13.572Z,8.41
2023-11-07T23:27:46.410Z,8.57
2023-11-07T23:30:18.477Z,8.64
2023-11-07T23:32:50.265Z,8.64
2023-11-07T23:35:23.226Z,8.58
2023-11-07T23:37:56.662Z,8.65
2023-11-07T23:40:29.347Z,8.56
2023-11-07T23:43:01.762Z,8.65
2023-11-07T23:45:34.207Z,8.80
2023-11-07T23:48:06.309Z,8.84
2023-11-07T23:50:38.160Z,8.79
2023-11-07T23:53:11.088Z,8.84
2023-11-07T23:55:42.805Z,8.77
2023-11-07T23:58:14.300Z,8.60
